Time;durP1;ratioP1;P1;durP2;ratioP2;P2;SDS_P1;SDS_P2;PMS_P1;PMS_P2;Temp;Humidity;BMP_temperature;BMP_pressure;BME280_temperature;BME280_humidity;BME280_pressure;Samples;Min_cycle;Max_cycle;Signal;HPM_P1;HPM_P2
2023/12/29 00:02:05;;;;;;;6.03;2.03;;;10.90;89.30;;;;;;5055226;28;20021;-67
2023/12/29 00:04:30;;;;;;;6.97;2.10;;;10.90;86.70;;;;;;5055548;28;20376;-68
2023/12/29 00:06:56;;;;;;;8.38;2.28;;;10.90;87.10;;;;;;5055689;28;20578;-67
2023/12/29 00:09:22;;;;;;;19.73;2.45;;;10.90;87.90;;;;;;5055734;28;20043;-67
2023/12/29 00:11:48;;;;;;;8.02;1.92;;;10.90;83.50;;;;;;5055548;28;20036;-67
2023/12/29 00:14:13;;;;;;;6.63;1.60;;;10.90;90.10;;;;;;5055614;28;20033;-66
2023/12/29 00:16:39;;;;;;;9.30;1.95;;;11.00;88.20;;;;;;5055489;28;20025;-68
2023/12/29 00:19:04;;;;;;;6.07;1.73;;;11.00;81.40;;;;;;5055491;28;20497;-68
2023/12/29 00:21:30;;;;;;;11.27;1.73;;;10.90;81.80;;;;;;5055157;28;20033;-67
2023/12/29 00:23:56;;;;;;;5.60;1.90;;;10.90;87.90;;;;;;5055552;28;20030;-67
2023/12/29 00:26:22;;;;;;;10.07;2.15;;;11.00;85.50;;;;;;5055266;28;20428;-67
2023/12/29 00:28:47;;;;;;;6.90;2.15;;;11.00;86.40;;;;;;5055409;28;20029;-66
2023/12/29 00:31:15;;;;;;;9.27;2.15;;;11.00;86.70;;;;;;5055510;28;20051;-68
2023/12/29 00:33:41;;;;;;;9.60;1.70;;;11.10;89.90;;;;;;5054779;28;20060;-68
2023/12/29 00:36:07;;;;;;;8.73;2.00;;;11.10;83.10;;;;;;5054926;28;20032;-67
2023/12/29 00:38:33;;;;;;;6.65;1.60;;;11.10;83.70;;;;;;5055233;28;20078;-68
2023/12/29 00:40:59;;;;;;;11.05;2.20;;;11.00;82.60;;;;;;5055196;28;20031;-67
2023/12/29 00:43:24;;;;;;;6.85;1.63;;;11.00;84.20;;;;;;5055242;28;20478;-68
2023/12/29 00:45:50;;;;;;;6.13;1.67;;;11.10;77.80;;;;;;5055312;28;20081;-67
2023/12/29 00:48:16;;;;;;;8.98;1.85;;;11.00;82.30;;;;;;5055029;28;20123;-68
2023/12/29 00:50:42;;;;;;;11.68;2.25;;;11.00;81.90;;;;;;5054622;28;20094;-67
2023/12/29 00:53:07;;;;;;;10.93;2.08;;;11.00;84.20;;;;;;5054984;28;20094;-68
2023/12/29 00:55:33;;;;;;;8.55;1.90;;;11.00;82.30;;;;;;5054728;28;20120;-67
2023/12/29 00:57:58;;;;;;;8.32;1.90;;;11.00;85.00;;;;;;5054633;28;20104;-68
2023/12/29 01:00:24;;;;;;;9.43;2.72;;;11.00;86.10;;;;;;5054907;28;20021;-68
2023/12/29 01:02:49;;;;;;;10.50;2.63;;;11.00;90.00;;;;;;5054935;28;20142;-68
2023/12/29 01:05:17;;;;;;;5.15;2.05;;;11.00;89.40;;;;;;5054895;28;20457;-67
2023/12/29 01:07:43;;;;;;;7.72;1.85;;;11.10;89.40;;;;;;5053563;28;20368;-66
2023/12/29 01:10:09;;;;;;;7.25;1.83;;;11.10;91.20;;;;;;5054730;28;20083;-66
2023/12/29 01:12:34;;;;;;;8.82;1.98;;;11.10;37.10;;;;;;5054352;28;20037;-67
2023/12/29 01:15:00;;;;;;;6.55;1.65;;;11.10;41.50;;;;;;5053270;28;20083;-66
2023/12/29 01:17:27;;;;;;;6.60;1.75;;;11.20;40.30;;;;;;5054595;28;20053;-67
2023/12/29 01:19:53;;;;;;;12.63;2.30;;;11.10;37.20;;;;;;5054152;28;20049;-67
2023/12/29 01:22:19;;;;;;;8.13;2.10;;;11.10;47.70;;;;;;5054469;28;20032;-67
2023/12/29 01:24:44;;;;;;;5.25;1.60;;;11.10;45.30;;;;;;5054252;28;20033;-67
2023/12/29 01:27:10;;;;;;;6.47;1.65;;;11.20;44.20;;;;;;5054201;28;20363;-68
2023/12/29 01:29:36;;;;;;;8.38;1.77;;;11.10;44.90;;;;;;5054345;28;20029;-68
2023/12/29 01:32:03;;;;;;;5.50;1.35;;;11.10;47.50;;;;;;5054280;28;20033;-67
2023/12/29 01:34:32;;;;;;;5.30;1.65;;;11.20;46.50;;;;;;5053885;28;20162;-67
2023/12/29 01:36:58;;;;;;;6.90;1.95;;;11.20;47.40;;;;;;5054253;28;20036;-67
2023/12/29 01:39:24;;;;;;;6.20;1.42;;;11.20;42.60;;;;;;5054063;28;20063;-67
2023/12/29 01:41:49;;;;;;;3.65;1.73;;;11.20;46.10;;;;;;5053955;28;20064;-67
2023/12/29 01:44:19;;;;;;;8.45;1.80;;;11.20;44.30;;;;;;5053831;28;20029;-67
2023/12/29 01:46:46;;;;;;;6.85;1.48;;;11.10;46.60;;;;;;5053713;28;20055;-67
2023/12/29 01:49:17;;;;;;;10.07;2.03;;;11.10;44.70;;;;;;5053761;28;20394;-67
2023/12/29 01:51:43;;;;;;;11.95;1.92;;;11.10;45.90;;;;;;5053768;28;20028;-70
2023/12/29 01:54:10;;;;;;;5.57;1.95;;;11.10;46.60;;;;;;5053316;28;20103;-70
2023/12/29 01:56:36;;;;;;;5.65;1.85;;;11.00;54.60;;;;;;5053496;28;20505;-70
2023/12/29 01:59:01;;;;;;;7.82;2.00;;;11.00;51.50;;;;;;5053849;28;20056;-70
2023/12/29 02:01:27;;;;;;;4.93;2.00;;;10.90;56.90;;;;;;5053723;28;20027;-70
2023/12/29 02:03:53;;;;;;;3.47;1.80;;;10.90;59.20;;;;;;5053404;28;20021;-70
2023/12/29 02:06:20;;;;;;;11.23;2.08;;;10.90;56.70;;;;;;5053617;28;20106;-70
2023/12/29 02:08:47;;;;;;;7.47;1.40;;;10.80;66.80;;;;;;5053123;28;20112;-70
2023/12/29 02:11:13;;;;;;;6.85;1.98;;;10.80;73.70;;;;;;5053761;28;20432;-69
2023/12/29 02:13:38;;;;;;;11.65;1.90;;;10.80;73.30;;;;;;5053139;28;20025;-69
2023/12/29 02:16:11;;;;;;;5.32;1.27;;;10.80;70.10;;;;;;5053057;28;20074;-69
2023/12/29 02:18:39;;;;;;;9.52;1.90;;;10.80;66.00;;;;;;5053676;28;20479;-68
2023/12/29 02:21:05;;;;;;;6.68;2.25;;;10.80;69.80;;;;;;5053429;28;20056;-69
2023/12/29 02:23:30;;;;;;;7.15;1.70;;;10.80;75.30;;;;;;5053479;28;20060;-69
2023/12/29 02:26:02;;;;;;;8.43;1.70;;;10.70;84.00;;;;;;5053136;28;20127;-68
2023/12/29 02:28:28;;;;;;;4.28;1.67;;;10.60;84.00;;;;;;5053419;28;20116;-69
2023/12/29 02:31:01;;;;;;;9.18;2.30;;;10.60;92.10;;;;;;5053422;28;20052;-68
2023/12/29 02:33:27;;;;;;;7.88;2.38;;;10.50;98.60;;;;;;5053090;28;20033;-68
2023/12/29 02:35:59;;;;;;;8.68;2.17;;;10.50;99.90;;;;;;5053139;28;20041;-68
2023/12/29 02:38:27;;;;;;;5.97;1.95;;;10.40;99.90;;;;;;5053367;28;20426;-68
2023/12/29 02:40:54;;;;;;;8.30;2.45;;;10.20;99.90;;;;;;5053287;28;20036;-68
2023/12/29 02:43:20;;;;;;;7.55;2.70;;;10.10;99.90;;;;;;5053239;28;20111;-68
2023/12/29 02:45:46;;;;;;;10.63;2.75;;;10.00;99.90;;;;;;5053170;28;20116;-68
2023/12/29 02:48:11;;;;;;;9.23;2.50;;;9.80;99.90;;;;;;5053214;28;20065;-68
2023/12/29 02:50:37;;;;;;;12.88;2.95;;;9.70;99.90;;;;;;5053248;28;20025;-68
2023/12/29 02:53:04;;;;;;;9.68;2.53;;;9.60;99.90;;;;;;5053210;28;20040;-69
2023/12/29 02:55:29;;;;;;;8.95;2.45;;;9.60;99.90;;;;;;5052691;28;20119;-68
2023/12/29 02:57:55;;;;;;;15.52;3.53;;;9.50;99.90;;;;;;5052812;28;20112;-68
2023/12/29 03:00:20;;;;;;;8.82;2.80;;;9.40;99.90;;;;;;5052988;28;20044;-68
2023/12/29 03:02:46;;;;;;;9.68;2.78;;;9.40;99.90;;;;;;5052912;28;20021;-68
2023/12/29 03:05:12;;;;;;;11.18;2.83;;;9.30;99.90;;;;;;5053120;28;20162;-69
2023/12/29 03:07:37;;;;;;;14.32;3.55;;;9.20;99.90;;;;;;5052997;28;20025;-69
2023/12/29 03:10:03;;;;;;;12.63;2.65;;;9.20;99.90;;;;;;5053105;28;20075;-69
2023/12/29 03:12:30;;;;;;;8.38;3.00;;;9.20;99.90;;;;;;5052951;28;20028;-69
2023/12/29 03:14:56;;;;;;;14.23;2.60;;;9.10;99.90;;;;;;5052947;28;20124;-68
2023/12/29 03:17:21;;;;;;;14.50;3.70;;;9.10;99.90;;;;;;5052853;28;20021;-69
2023/12/29 03:19:47;;;;;;;13.98;3.28;;;9.10;99.90;;;;;;5052751;28;20033;-69
2023/12/29 03:22:12;;;;;;;11.07;2.85;;;9.10;99.90;;;;;;5052762;28;20544;-69
2023/12/29 03:24:41;;;;;;;9.98;3.30;;;9.00;99.90;;;;;;5052800;28;20123;-69
2023/12/29 03:27:06;;;;;;;10.65;3.28;;;9.00;99.90;;;;;;5052826;28;20088;-69
2023/12/29 03:29:32;;;;;;;13.40;3.33;;;9.10;99.90;;;;;;5052415;28;20482;-69
2023/12/29 03:31:57;;;;;;;20.20;3.13;;;9.10;99.90;;;;;;5052789;28;20029;-68
2023/12/29 03:34:23;;;;;;;12.07;3.70;;;9.10;99.90;;;;;;5052341;28;20052;-68
2023/12/29 03:36:49;;;;;;;11.50;3.42;;;9.10;99.90;;;;;;5052700;28;20033;-69
2023/12/29 03:39:14;;;;;;;7.78;3.50;;;9.10;99.90;;;;;;5056073;28;20021;-68
2023/12/29 03:41:40;;;;;;;11.70;2.95;;;9.10;99.90;;;;;;5056456;28;20028;-68
2023/12/29 03:44:06;;;;;;;7.60;3.10;;;9.10;99.90;;;;;;5056293;28;20017;-68
2023/12/29 03:46:32;;;;;;;11.65;2.67;;;9.20;99.90;;;;;;5056365;28;20028;-69
2023/12/29 03:48:58;;;;;;;10.95;3.05;;;9.20;99.90;;;;;;5056323;28;20356;-69
2023/12/29 03:51:24;;;;;;;10.20;3.00;;;9.20;99.90;;;;;;5056373;28;20429;-68
2023/12/29 03:53:50;;;;;;;11.50;3.00;;;9.20;99.90;;;;;;5056161;28;20037;-69
2023/12/29 03:56:17;;;;;;;9.93;2.90;;;9.20;99.90;;;;;;5055833;28;20036;-68
2023/12/29 03:58:45;;;;;;;8.95;2.75;;;9.20;99.90;;;;;;5055938;28;20391;-69
2023/12/29 04:01:11;;;;;;;13.25;3.42;;;9.20;99.90;;;;;;5055916;28;20112;-69
2023/12/29 04:03:38;;;;;;;12.65;3.28;;;9.30;99.90;;;;;;5055790;28;20021;-68
2023/12/29 04:06:04;;;;;;;12.90;2.95;;;9.30;99.90;;;;;;5055895;28;20029;-68
2023/12/29 04:08:29;;;;;;;12.98;2.90;;;9.40;99.90;;;;;;5055991;28;20043;-68
2023/12/29 04:10:55;;;;;;;12.20;2.90;;;9.40;99.90;;;;;;5055758;28;20033;-68
2023/12/29 04:13:20;;;;;;;12.35;3.15;;;9.50;99.90;;;;;;5055789;28;20037;-68
2023/12/29 04:15:46;;;;;;;9.27;2.92;;;9.50;99.90;;;;;;5055576;28;20155;-68
2023/12/29 04:18:11;;;;;;;7.50;2.38;;;9.50;99.90;;;;;;5055784;28;20078;-68
2023/12/29 04:20:37;;;;;;;8.77;2.92;;;9.50;99.90;;;;;;5055659;28;20103;-68
2023/12/29 04:23:05;;;;;;;10.88;2.67;;;9.60;99.90;;;;;;5055742;28;20123;-68
2023/12/29 04:25:30;;;;;;;8.45;2.55;;;9.60;99.90;;;;;;5055610;28;20025;-69
2023/12/29 04:27:56;;;;;;;8.75;2.33;;;9.50;99.90;;;;;;5055611;28;20032;-68
2023/12/29 04:30:21;;;;;;;10.80;2.83;;;9.60;99.90;;;;;;5055503;28;20031;-68
2023/12/29 04:32:47;;;;;;;13.60;2.88;;;9.60;99.90;;;;;;5055406;28;20037;-68
2023/12/29 04:35:14;;;;;;;14.73;3.05;;;9.70;99.90;;;;;;5055067;28;20048;-68
2023/12/29 04:37:40;;;;;;;12.60;2.90;;;9.70;99.90;;;;;;5055478;28;20025;-69
2023/12/29 04:40:06;;;;;;;9.30;2.67;;;9.70;99.90;;;;;;5055317;28;20021;-68
2023/12/29 04:42:32;;;;;;;14.43;2.80;;;9.80;99.90;;;;;;5055478;28;20382;-68
2023/12/29 04:44:58;;;;;;;16.77;3.28;;;9.90;99.90;;;;;;5055391;28;20112;-68
2023/12/29 04:47:23;;;;;;;8.57;2.33;;;9.80;99.90;;;;;;5055388;28;20088;-67
2023/12/29 04:49:49;;;;;;;9.45;2.47;;;9.80;99.90;;;;;;5054553;28;20120;-67
2023/12/29 04:52:14;;;;;;;11.93;2.58;;;9.80;99.90;;;;;;5055125;28;20124;-67
2023/12/29 04:54:39;;;;;;;8.10;2.33;;;9.90;99.90;;;;;;5055062;28;20162;-67
2023/12/29 04:57:05;;;;;;;9.45;2.75;;;9.90;99.90;;;;;;5055103;28;20115;-67
2023/12/29 04:59:31;;;;;;;9.05;2.38;;;9.90;99.90;;;;;;5054794;28;20074;-67
2023/12/29 05:01:56;;;;;;;9.15;2.47;;;9.90;99.90;;;;;;5054927;28;20029;-67
2023/12/29 05:04:22;;;;;;;12.57;2.47;;;9.90;99.90;;;;;;5054914;28;20031;-66
2023/12/29 05:06:47;;;;;;;9.43;2.05;;;9.90;99.90;;;;;;5054718;28;20100;-67
2023/12/29 05:09:13;;;;;;;10.15;2.25;;;10.00;99.90;;;;;;5054635;28;20053;-67
2023/12/29 05:11:39;;;;;;;13.45;2.63;;;10.00;99.90;;;;;;5054611;28;20111;-67
2023/12/29 05:14:04;;;;;;;12.07;2.97;;;10.00;99.90;;;;;;5054807;28;20106;-67
2023/12/29 05:16:30;;;;;;;10.98;2.53;;;10.00;99.90;;;;;;5054742;28;20473;-67
2023/12/29 05:18:55;;;;;;;8.27;2.35;;;10.10;99.90;;;;;;5054442;28;20114;-66
2023/12/29 05:21:21;;;;;;;10.02;2.58;;;10.10;99.90;;;;;;5054569;28;20079;-67
2023/12/29 05:23:47;;;;;;;6.95;2.10;;;10.10;99.90;;;;;;5054381;28;20025;-67
2023/12/29 05:26:14;;;;;;;10.68;2.50;;;10.10;99.90;;;;;;5054249;28;20025;-66
2023/12/29 05:28:40;;;;;;;7.10;2.17;;;10.10;99.90;;;;;;5054314;28;20087;-66
2023/12/29 05:31:05;;;;;;;7.80;2.25;;;10.10;99.90;;;;;;5054299;28;20029;-66
2023/12/29 05:33:32;;;;;;;7.55;2.30;;;10.20;99.90;;;;;;5054173;28;20036;-66
2023/12/29 05:35:58;;;;;;;10.50;2.70;;;10.20;99.90;;;;;;5053134;28;20065;-66
2023/12/29 05:38:24;;;;;;;10.68;2.25;;;10.20;99.90;;;;;;5054324;28;20071;-66
2023/12/29 05:40:50;;;;;;;12.43;2.40;;;10.20;99.90;;;;;;5053978;28;20036;-66
2023/12/29 05:43:16;;;;;;;7.97;2.10;;;10.20;99.90;;;;;;5054380;28;20475;-66
2023/12/29 05:45:42;;;;;;;12.68;2.50;;;10.20;99.90;;;;;;5053978;28;20442;-65
2023/12/29 05:48:08;;;;;;;12.70;2.40;;;10.30;99.90;;;;;;5054118;28;20051;-65
2023/12/29 05:50:33;;;;;;;8.45;2.17;;;10.20;99.90;;;;;;5053830;28;20036;-65
2023/12/29 05:52:59;;;;;;;12.55;2.35;;;10.20;99.90;;;;;;5053817;28;20033;-67
2023/12/29 05:55:25;;;;;;;9.18;2.25;;;10.20;99.90;;;;;;5053822;28;20041;-65
2023/12/29 05:57:50;;;;;;;13.52;2.50;;;10.20;99.90;;;;;;5053687;28;20029;-65
2023/12/29 06:00:16;;;;;;;13.35;3.20;;;10.20;99.90;;;;;;5053109;28;20387;-65
2023/12/29 06:02:42;;;;;;;15.57;2.83;;;10.20;99.90;;;;;;5053618;28;20490;-65
2023/12/29 06:05:11;;;;;;;9.18;2.40;;;10.20;99.90;;;;;;5053832;28;20029;-66
2023/12/29 06:07:36;;;;;;;9.55;2.20;;;10.20;99.90;;;;;;5053798;28;20050;-65
2023/12/29 06:10:02;;;;;;;8.63;2.90;;;10.20;99.90;;;;;;5053427;28;20031;-66
2023/12/29 06:12:28;;;;;;;12.40;2.10;;;10.30;99.90;;;;;;5053722;28;20044;-67
2023/12/29 06:14:53;;;;;;;10.80;2.05;;;10.20;99.90;;;;;;5053463;28;20482;-66
2023/12/29 06:17:19;;;;;;;9.35;2.45;;;10.20;99.90;;;;;;5053570;28;20041;-66
2023/12/29 06:19:45;;;;;;;11.57;2.50;;;10.30;99.90;;;;;;5053375;28;20036;-66
2023/12/29 06:22:11;;;;;;;7.78;2.00;;;10.30;99.90;;;;;;5053369;28;20068;-67
2023/12/29 06:24:38;;;;;;;9.90;2.25;;;10.30;99.90;;;;;;5053321;28;20487;-67
2023/12/29 06:27:04;;;;;;;8.95;2.17;;;10.30;99.90;;;;;;5053236;28;20398;-66
2023/12/29 06:29:29;;;;;;;9.18;2.30;;;10.30;99.90;;;;;;5053461;28;20033;-66
2023/12/29 06:31:55;;;;;;;10.00;2.42;;;10.30;99.90;;;;;;5053063;28;20029;-66
2023/12/29 06:34:20;;;;;;;10.25;2.20;;;10.30;99.90;;;;;;5052962;28;20060;-66
2023/12/29 06:36:46;;;;;;;8.27;2.10;;;10.30;99.90;;;;;;5053195;28;20028;-66
2023/12/29 06:39:11;;;;;;;9.80;2.58;;;10.30;99.00;;;;;;5053202;28;20083;-67
2023/12/29 06:41:37;;;;;;;13.35;2.20;;;10.40;97.80;;;;;;5053020;28;20017;-67
2023/12/29 06:44:03;;;;;;;11.02;2.30;;;10.30;97.10;;;;;;5053067;28;20063;-67
2023/12/29 06:46:28;;;;;;;13.70;2.47;;;10.30;97.30;;;;;;5053360;28;20052;-67
2023/12/29 06:48:54;;;;;;;9.63;2.05;;;10.30;95.90;;;;;;5053225;28;20033;-67
2023/12/29 06:51:19;;;;;;;10.23;2.95;;;10.40;94.50;;;;;;5052857;28;20083;-67
2023/12/29 06:53:47;;;;;;;10.88;2.47;;;10.40;92.80;;;;;;5052987;28;20056;-67
2023/12/29 06:56:14;;;;;;;27.08;2.78;;;10.40;91.00;;;;;;5052686;28;20025;-67
2023/12/29 06:58:40;;;;;;;8.68;2.50;;;10.40;87.70;;;;;;5052764;28;20096;-67
2023/12/29 07:01:05;;;;;;;9.80;2.60;;;10.40;84.00;;;;;;5053122;28;20032;-66
2023/12/29 07:03:31;;;;;;;11.05;2.20;;;10.40;71.80;;;;;;5053393;28;20383;-66
2023/12/29 07:05:56;;;;;;;9.75;2.50;;;10.40;69.40;;;;;;5052858;28;20156;-67
2023/12/29 07:08:22;;;;;;;8.48;1.80;;;10.40;66.50;;;;;;5052715;28;20037;-67
2023/12/29 07:10:50;;;;;;;8.20;2.13;;;10.30;74.80;;;;;;5052981;28;20025;-67
2023/12/29 07:13:15;;;;;;;9.68;2.42;;;10.30;72.70;;;;;;5056577;28;20394;-66
2023/12/29 07:15:41;;;;;;;9.57;2.05;;;10.40;76.80;;;;;;5056733;28;20024;-66
2023/12/29 07:18:07;;;;;;;17.73;3.15;;;10.40;73.90;;;;;;5056949;28;20078;-67
2023/12/29 07:20:32;;;;;;;11.90;2.20;;;10.30;76.00;;;;;;5056929;28;20107;-66
2023/12/29 07:22:58;;;;;;;8.15;1.70;;;10.30;77.50;;;;;;5056573;28;20387;-66
2023/12/29 07:25:24;;;;;;;12.20;2.15;;;10.40;72.00;;;;;;5056747;28;20040;-67
2023/12/29 07:27:49;;;;;;;8.05;2.20;;;10.40;74.50;;;;;;5056414;28;20487;-66
2023/12/29 07:30:15;;;;;;;11.38;2.40;;;10.40;68.00;;;;;;5056704;28;20390;-67
2023/12/29 07:32:41;;;;;;;11.57;2.00;;;10.40;74.80;;;;;;5056445;28;20368;-67
2023/12/29 07:35:07;;;;;;;9.02;2.13;;;10.40;73.50;;;;;;5056163;28;20053;-67
2023/12/29 07:37:32;;;;;;;6.90;1.95;;;10.40;79.10;;;;;;5056415;28;20025;-67
2023/12/29 07:39:58;;;;;;;11.15;2.30;;;10.40;79.20;;;;;;5056482;28;20032;-67
2023/12/29 07:42:23;;;;;;;9.93;2.10;;;10.40;78.50;;;;;;5056276;28;20025;-67
2023/12/29 07:44:49;;;;;;;12.85;2.05;;;10.40;74.10;;;;;;5056003;28;20136;-67
2023/12/29 07:47:14;;;;;;;13.43;2.65;;;10.40;82.30;;;;;;5056000;28;20064;-67
2023/12/29 07:49:42;;;;;;;9.27;2.13;;;10.40;91.30;;;;;;5056346;28;20386;-67
2023/12/29 07:52:08;;;;;;;17.25;2.45;;;10.30;98.90;;;;;;5056081;28;20510;-66
2023/12/29 07:54:33;;;;;;;13.90;2.58;;;10.10;99.90;;;;;;5055802;28;20025;-67
2023/12/29 07:56:59;;;;;;;8.13;2.05;;;10.00;99.90;;;;;;5056285;28;20222;-66
2023/12/29 07:59:24;;;;;;;10.38;2.60;;;9.90;99.90;;;;;;5055947;28;20418;-67
2023/12/29 08:01:50;;;;;;;5.93;2.20;;;9.80;99.90;;;;;;5055878;28;20025;-67
2023/12/29 08:04:16;;;;;;;17.15;3.10;;;9.70;99.90;;;;;;5056002;28;20036;-67
2023/12/29 08:06:41;;;;;;;10.07;2.72;;;9.70;99.90;;;;;;5055835;28;20524;-67
2023/12/29 08:09:08;;;;;;;16.25;2.55;;;9.70;99.90;;;;;;5056056;28;20032;-68
2023/12/29 08:11:34;;;;;;;8.20;2.30;;;9.70;99.90;;;;;;5055758;28;20391;-68
2023/12/29 08:13:59;;;;;;;13.77;2.20;;;9.60;99.90;;;;;;5055759;28;20025;-68
2023/12/29 08:16:26;;;;;;;11.77;2.40;;;9.60;99.90;;;;;;5055417;28;20441;-67
2023/12/29 08:18:52;;;;;;;7.28;2.53;;;9.60;99.90;;;;;;5055357;28;20079;-68
2023/12/29 08:21:18;;;;;;;10.90;2.40;;;9.60;99.90;;;;;;5055320;28;20021;-67
2023/12/29 08:23:45;;;;;;;7.90;2.63;;;9.70;99.90;;;;;;5055121;28;20040;-67
2023/12/29 08:26:10;;;;;;;10.02;1.88;;;9.60;99.90;;;;;;5055537;28;20447;-68
2023/12/29 08:28:36;;;;;;;8.55;1.85;;;9.60;99.90;;;;;;5055285;28;20115;-68
2023/12/29 08:31:02;;;;;;;7.43;2.08;;;9.70;99.90;;;;;;5055621;28;20117;-68
2023/12/29 08:33:27;;;;;;;7.13;2.13;;;9.60;99.90;;;;;;5055432;28;20056;-67
2023/12/29 08:35:53;;;;;;;7.93;2.42;;;9.60;99.90;;;;;;5055131;28;20083;-68
2023/12/29 08:38:18;;;;;;;7.13;2.22;;;9.60;99.90;;;;;;5055338;28;20028;-67
2023/12/29 08:40:44;;;;;;;7.90;2.13;;;9.60;99.90;;;;;;5055373;28;20029;-67
2023/12/29 08:43:09;;;;;;;12.15;2.00;;;9.60;99.90;;;;;;5055252;28;20406;-67
2023/12/29 08:45:36;;;;;;;8.20;2.47;;;9.60;99.90;;;;;;5055127;28;20313;-67
2023/12/29 08:48:02;;;;;;;17.38;2.55;;;9.50;99.90;;;;;;5054730;28;20033;-67
2023/12/29 08:50:28;;;;;;;12.57;2.20;;;9.40;99.90;;;;;;5055203;28;20111;-68
2023/12/29 08:52:54;;;;;;;12.02;3.13;;;9.40;99.90;;;;;;5055115;28;20508;-68
2023/12/29 08:55:19;;;;;;;10.35;2.35;;;9.40;99.90;;;;;;5054913;28;20044;-67
2023/12/29 08:57:45;;;;;;;9.45;2.92;;;9.40;99.90;;;;;;5054620;28;20032;-67
2023/12/29 09:00:11;;;;;;;7.35;2.25;;;9.50;99.90;;;;;;5054855;28;20020;-67
2023/12/29 09:02:36;;;;;;;14.20;2.38;;;9.50;99.90;;;;;;5054917;28;20024;-68
2023/12/29 09:05:02;;;;;;;10.70;3.30;;;9.40;99.90;;;;;;5054761;28;20029;-68
2023/12/29 09:07:28;;;;;;;10.48;2.97;;;9.50;99.90;;;;;;5054988;28;20060;-67
2023/12/29 09:09:54;;;;;;;6.47;2.47;;;9.40;99.90;;;;;;5054560;28;20075;-67
2023/12/29 09:12:19;;;;;;;8.65;2.58;;;9.40;99.90;;;;;;5054755;28;20040;-67
2023/12/29 09:14:45;;;;;;;9.77;2.20;;;9.40;99.90;;;;;;5054389;28;20040;-67
2023/12/29 09:17:10;;;;;;;10.85;2.70;;;9.50;99.90;;;;;;5054450;28;20359;-67
2023/12/29 09:19:36;;;;;;;4.28;2.17;;;9.50;99.90;;;;;;5054487;28;20032;-67
2023/12/29 09:22:03;;;;;;;9.43;2.78;;;9.50;99.90;;;;;;5054111;28;20044;-67
2023/12/29 09:24:28;;;;;;;7.85;1.70;;;9.60;99.90;;;;;;5054458;28;20074;-67
2023/12/29 09:26:54;;;;;;;6.60;1.95;;;9.70;99.90;;;;;;5054438;28;20484;-67
2023/12/29 09:29:19;;;;;;;12.05;2.65;;;9.70;99.90;;;;;;5054241;28;20017;-67
2023/12/29 09:31:45;;;;;;;4.65;1.77;;;9.70;99.90;;;;;;5054227;28;20029;-69
2023/12/29 09:34:10;;;;;;;7.45;2.28;;;9.80;99.90;;;;;;5053992;28;20037;-68
2023/12/29 09:36:36;;;;;;;3.10;1.45;;;9.80;99.90;;;;;;5053164;28;20425;-68
2023/12/29 09:39:02;;;;;;;4.78;1.65;;;9.80;99.90;;;;;;5054189;28;20029;-68
2023/12/29 09:41:31;;;;;;;4.45;1.15;;;9.80;99.90;;;;;;5054324;28;20490;-68
2023/12/29 09:43:58;;;;;;;6.53;1.50;;;9.80;99.90;;;;;;5054160;28;20091;-66
2023/12/29 09:46:25;;;;;;;5.00;1.50;;;9.90;99.90;;;;;;5053992;28;20079;-68
2023/12/29 09:48:52;;;;;;;6.75;1.60;;;9.90;99.90;;;;;;5053762;28;20037;-67
2023/12/29 09:51:22;;;;;;;8.27;1.60;;;9.90;99.90;;;;;;5053849;28;20037;-68
2023/12/29 09:53:49;;;;;;;4.90;1.35;;;9.90;99.90;;;;;;5053833;28;20505;-67
2023/12/29 09:56:16;;;;;;;4.72;1.30;;;9.90;99.90;;;;;;5053621;28;20064;-68
2023/12/29 09:58:42;;;;;;;5.53;1.17;;;9.90;99.90;;;;;;5053919;28;20518;-67
2023/12/29 10:01:08;;;;;;;3.13;1.08;;;10.00;99.90;;;;;;5053460;28;20380;-67
2023/12/29 10:03:34;;;;;;;2.33;0.70;;;10.00;99.90;;;;;;5053691;28;20078;-67
2023/12/29 10:06:06;;;;;;;1.70;1.10;;;10.00;99.90;;;;;;5053663;28;20032;-67
2023/12/29 10:08:34;;;;;;;2.55;1.10;;;10.10;99.90;;;;;;5053779;28;20044;-67
2023/12/29 10:11:01;;;;;;;2.03;1.08;;;10.10;99.90;;;;;;5053607;28;20060;-66
2023/12/29 10:13:29;;;;;;;4.22;0.77;;;10.20;99.90;;;;;;5053576;28;20025;-67
2023/12/29 10:16:19;;;;;;;3.38;1.00;;;10.20;99.90;;;;;;5053087;28;20021;-67
2023/12/29 10:18:56;;;;;;;3.45;1.30;;;10.30;99.90;;;;;;5053313;28;20158;-67
2023/12/29 10:21:38;;;;;;;6.05;1.35;;;10.30;99.90;;;;;;5053365;28;20471;-66
2023/12/29 10:24:10;;;;;;;2.53;1.10;;;10.30;99.90;;;;;;5053397;28;20017;-67
2023/12/29 10:26:36;;;;;;;3.25;0.90;;;10.30;99.90;;;;;;5053594;28;20033;-67
2023/12/29 10:29:02;;;;;;;1.33;0.90;;;10.30;99.90;;;;;;5053443;28;20043;-67
2023/12/29 10:31:27;;;;;;;2.03;1.13;;;10.40;99.90;;;;;;5053216;28;20100;-68
2023/12/29 10:34:28;;;;;;;1.30;0.70;;;10.40;99.90;;;;;;5052971;28;20132;-68
2023/12/29 10:36:55;;;;;;;3.30;0.70;;;10.40;99.90;;;;;;5053201;28;20041;-68
2023/12/29 10:39:21;;;;;;;0.60;0.55;;;10.40;99.90;;;;;;5053288;28;20068;-69
2023/12/29 10:41:46;;;;;;;1.90;0.60;;;10.40;99.90;;;;;;5053382;28;20029;-68
2023/12/29 10:44:12;;;;;;;3.80;1.20;;;10.50;99.90;;;;;;5053431;28;20021;-67
2023/12/29 10:46:38;;;;;;;1.00;0.80;;;10.50;99.90;;;;;;5052933;28;20441;-68
2023/12/29 10:49:12;;;;;;;2.15;1.00;;;10.40;99.90;;;;;;5053288;28;20025;-68
2023/12/29 10:51:38;;;;;;;3.25;1.00;;;10.40;99.90;;;;;;5053219;28;20025;-67
2023/12/29 10:54:04;;;;;;;3.17;1.00;;;10.40;99.90;;;;;;5052781;28;20021;-68
2023/12/29 10:56:32;;;;;;;1.02;0.68;;;10.40;99.90;;;;;;5053104;28;20029;-67
2023/12/29 10:59:00;;;;;;;1.15;0.70;;;10.40;99.90;;;;;;5052992;28;20025;-68
2023/12/29 11:01:26;;;;;;;1.15;0.60;;;10.40;99.90;;;;;;5053234;28;20061;-67
2023/12/29 11:06:42;;;;;;;3.22;0.70;;;10.50;99.90;;;;;;5090929;27;20381;-66
2023/12/29 11:09:09;;;;;;;3.00;0.60;;;10.50;99.90;;;;;;5091024;28;20036;-66
2023/12/29 11:11:36;;;;;;;2.83;0.75;;;10.50;99.90;;;;;;5090862;28;20024;-66
2023/12/29 11:14:02;;;;;;;1.63;0.80;;;10.50;99.90;;;;;;5090851;28;20082;-67
2023/12/29 11:16:29;;;;;;;0.77;0.60;;;10.50;99.90;;;;;;5090818;28;20464;-67
2023/12/29 11:18:56;;;;;;;2.33;0.60;;;10.50;99.90;;;;;;5090581;28;20024;-67
2023/12/29 11:21:22;;;;;;;1.27;0.60;;;10.50;99.90;;;;;;5090492;28;20102;-67
2023/12/29 11:23:48;;;;;;;2.05;0.65;;;10.50;99.90;;;;;;5090602;28;20478;-66
2023/12/29 11:26:15;;;;;;;0.93;0.50;;;10.50;99.90;;;;;;5072258;28;20107;-66
2023/12/29 11:28:41;;;;;;;1.77;0.70;;;10.60;99.90;;;;;;5090490;28;20056;-67
2023/12/29 11:31:07;;;;;;;1.42;0.73;;;10.70;99.90;;;;;;5090542;28;20043;-66
2023/12/29 11:33:41;;;;;;;0.73;0.50;;;10.70;99.90;;;;;;5090343;28;20032;-66
2023/12/29 11:36:13;;;;;;;2.25;0.80;;;10.70;99.90;;;;;;5090317;28;20028;-68
2023/12/29 11:41:48;;;;;;;1.20;0.73;;;10.70;99.90;;;;;;5111178;27;20874;-66
2023/12/29 11:44:26;;;;;;;1.73;0.77;;;10.70;99.90;;;;;;5111183;28;20119;-67
2023/12/29 11:46:52;;;;;;;4.07;1.08;;;10.80;99.90;;;;;;5110793;28;20043;-67
2023/12/29 11:49:18;;;;;;;2.95;0.70;;;10.90;99.90;;;;;;5110888;28;20028;-66
2023/12/29 11:51:49;;;;;;;3.13;1.00;;;10.90;99.90;;;;;;5111116;28;20109;-66
2023/12/29 11:54:24;;;;;;;0.80;0.70;;;11.00;99.90;;;;;;5111111;28;20531;-66
2023/12/29 11:56:49;;;;;;;2.13;0.90;;;11.00;99.90;;;;;;5111022;28;20477;-66
2023/12/29 11:59:20;;;;;;;1.83;0.85;;;11.00;99.90;;;;;;5110644;28;20027;-66
2023/12/29 12:01:48;;;;;;;3.30;1.15;;;11.00;99.90;;;;;;5109479;28;20024;-65
2023/12/29 12:04:44;;;;;;;1.63;0.80;;;11.00;99.90;;;;;;5110695;28;20077;-65
2023/12/29 12:07:27;;;;;;;1.08;0.75;;;11.00;99.90;;;;;;5110402;28;20044;-65
2023/12/29 12:12:58;;;;;;;3.75;1.00;;;11.00;99.90;;;;;;5090883;28;20369;-66
2023/12/29 12:15:39;;;;;;;3.40;1.35;;;11.00;99.90;;;;;;5090829;28;20028;-66
2023/12/29 12:18:07;;;;;;;3.42;0.82;;;10.90;99.90;;;;;;5090775;28;20028;-65
2023/12/29 12:20:34;;;;;;;3.78;1.27;;;10.90;99.90;;;;;;5090867;28;20020;-65
2023/12/29 12:23:02;;;;;;;3.92;1.33;;;10.90;99.90;;;;;;5090481;28;20032;-65
2023/12/29 12:25:30;;;;;;;3.28;1.15;;;10.90;99.90;;;;;;5090434;28;20025;-66
2023/12/29 12:27:57;;;;;;;2.40;1.23;;;10.90;99.90;;;;;;5072675;28;20016;-65
2023/12/29 12:30:22;;;;;;;3.97;1.30;;;10.90;99.90;;;;;;5090122;28;20445;-66
2023/12/29 12:33:04;;;;;;;6.85;1.40;;;10.90;99.90;;;;;;5090322;28;20056;-65
2023/12/29 12:35:30;;;;;;;5.78;1.92;;;11.00;99.90;;;;;;5090255;28;20024;-65
2023/12/29 12:38:13;;;;;;;7.57;1.80;;;11.00;99.90;;;;;;5090429;28;20024;-65
2023/12/29 12:40:39;;;;;;;4.10;1.55;;;11.10;99.90;;;;;;5090445;28;20500;-66
2023/12/29 12:43:06;;;;;;;8.60;2.20;;;11.10;99.90;;;;;;5072106;28;20024;-65
2023/12/29 12:45:42;;;;;;;3.65;2.03;;;11.10;99.90;;;;;;5090202;28;20413;-65
2023/12/29 12:48:30;;;;;;;7.45;2.05;;;11.20;99.90;;;;;;5090240;28;20025;-65
2023/12/29 12:50:57;;;;;;;6.05;2.20;;;11.20;99.90;;;;;;5090148;28;20077;-65
2023/12/29 12:53:23;;;;;;;2.38;1.70;;;11.20;99.90;;;;;;5090240;28;20028;-65
2023/12/29 12:55:50;;;;;;;3.97;2.00;;;11.10;99.90;;;;;;5089897;28;20051;-66